SETU

Teniente Coronel Luis a Mantilla Airport

Airport
ICAO code
SETU
IATA Code
TUA
Summary
ICAO Region
CARSAM
ICAO Territory
Location

, Carchi

Serving
Tulcan
Elevation
9649 ft
Coordinates
0° 48' 34" N , 77° 42' 29" W
Metar
Observation
SETU 262100Z 12010KT 9999 BKN020 13/08 Q1030
Station
Tulcan / El Rosal
Date/Time
2022-09-26 21:00:00
Wind direction
120°
Wind speed
10 kts
Lowest cloud amount
broken clouds
Temperature
13°C
Dew point
8°C
Humidity
71%
QNH
1030 hPa
Weather condition
n/a

Runways

Designator Length Width Surface Rops
5/23 2460 30 ASP No/No

Airport map

Aerial View

SKYbrary Partners:

Safety knowledge contributed by: